createdAt,value
2019-02-08T00:02:40.607Z,7.35
2019-02-08T00:05:43.939Z,7.36
2019-02-08T00:08:46.871Z,7.30
2019-02-08T00:11:49.790Z,7.33
2019-02-08T00:14:52.687Z,7.46
2019-02-08T00:17:55.599Z,7.45
2019-02-08T00:20:59.189Z,7.44
2019-02-08T00:24:02.111Z,7.48
2019-02-08T00:27:05.452Z,7.31
2019-02-08T00:30:15.196Z,7.32
2019-02-08T00:33:18.439Z,7.29
2019-02-08T00:36:22.144Z,7.25
2019-02-08T00:39:25.151Z,7.24
2019-02-08T00:42:28.172Z,7.29
2019-02-08T00:45:32.062Z,7.33
2019-02-08T00:48:35.397Z,7.29
2019-02-08T00:51:39.711Z,7.34
2019-02-08T00:54:43.059Z,7.26
2019-02-08T01:00:48.460Z,7.31
2019-02-08T01:03:51.389Z,7.33
2019-02-08T01:06:54.626Z,7.25
2019-02-08T01:09:57.757Z,7.27
2019-02-08T01:13:00.814Z,7.26
2019-02-08T01:16:04.988Z,7.35
2019-02-08T01:19:08.465Z,7.18
2019-02-08T01:22:11.409Z,7.28
2019-02-08T01:25:17.892Z,7.11
2019-02-08T01:28:21.548Z,7.13
2019-02-08T01:31:24.763Z,7.14
2019-02-08T01:34:27.672Z,7.21
2019-02-08T01:37:30.958Z,7.24
2019-02-08T01:40:36.451Z,7.17
2019-02-08T01:43:39.352Z,7.18
2019-02-08T01:46:42.639Z,7.22
2019-02-08T01:49:45.952Z,7.27
2019-02-08T01:52:49.220Z,7.28
2019-02-08T01:55:52.155Z,7.30
2019-02-08T01:58:55.071Z,7.24
2019-02-08T02:01:58.007Z,7.28
2019-02-08T02:05:00.900Z,7.29
2019-02-08T02:08:04.247Z,7.25
2019-02-08T02:11:07.159Z,7.24
2019-02-08T02:14:10.083Z,7.23
2019-02-08T02:17:13.791Z,7.16
2019-02-08T02:20:18.864Z,7.16
2019-02-08T02:23:22.093Z,7.21
2019-02-08T02:26:26.503Z,7.22
2019-02-08T02:29:29.786Z,7.28
2019-02-08T02:32:32.721Z,7.28
2019-02-08T02:35:35.623Z,7.21
2019-02-08T02:38:38.939Z,7.26
2019-02-08T02:41:41.847Z,7.26
2019-02-08T02:44:45.048Z,7.22
2019-02-08T02:47:48.077Z,7.23
2019-02-08T02:50:51.007Z,7.23
2019-02-08T02:53:54.329Z,7.26
2019-02-08T02:56:57.621Z,7.33
2019-02-08T03:00:00.606Z,7.33
2019-02-08T03:03:04.372Z,7.41
2019-02-08T03:06:07.406Z,7.26
2019-02-08T03:09:11.613Z,7.26
2019-02-08T03:12:14.611Z,7.30
2019-02-08T03:15:19.258Z,7.29
2019-02-08T03:18:22.176Z,7.30
2019-02-08T03:21:26.123Z,7.32
2019-02-08T03:24:29.430Z,7.24
2019-02-08T03:27:32.340Z,7.20
2019-02-08T03:30:43.097Z,7.24
2019-02-08T03:33:46.004Z,7.28
2019-02-08T03:36:48.904Z,7.34
2019-02-08T03:39:52.559Z,7.26
2019-02-08T03:42:55.696Z,7.28
2019-02-08T03:45:58.998Z,7.25
2019-02-08T03:49:01.899Z,7.24
2019-02-08T03:52:04.824Z,7.21
2019-02-08T03:55:09.565Z,7.22
2019-02-08T03:58:12.556Z,7.23
2019-02-08T04:01:15.693Z,7.20
2019-02-08T04:04:18.598Z,7.30
2019-02-08T04:07:21.533Z,7.16
2019-02-08T04:10:24.978Z,7.25
2019-02-08T04:13:28.301Z,7.17
2019-02-08T04:16:31.217Z,7.20
2019-02-08T04:19:34.124Z,7.25
2019-02-08T04:22:37.508Z,7.29
2019-02-08T04:25:40.794Z,7.07
2019-02-08T04:28:43.712Z,7.13
2019-02-08T04:31:46.961Z,7.07
2019-02-08T04:34:50.271Z,7.04
2019-02-08T04:37:53.627Z,7.12
2019-02-08T04:40:56.535Z,7.14
2019-02-08T04:43:59.807Z,7.15
2019-02-08T04:47:03.095Z,7.23
2019-02-08T04:50:07.936Z,7.06
2019-02-08T04:53:10.869Z,7.11
2019-02-08T04:56:13.789Z,7.10
2019-02-08T04:59:17.019Z,7.15
2019-02-08T05:02:21.488Z,7.16
2019-02-08T05:05:25.137Z,7.17
2019-02-08T05:08:28.055Z,7.17
2019-02-08T05:11:31.355Z,7.26
2019-02-08T05:14:34.281Z,7.09
2019-02-08T05:17:37.543Z,7.08
2019-02-08T05:20:40.884Z,7.04
2019-02-08T05:23:45.745Z,7.03
2019-02-08T05:26:49.123Z,7.09
2019-02-08T05:29:52.047Z,7.05
2019-02-08T05:32:55.061Z,7.12
2019-02-08T05:35:58.011Z,6.98
2019-02-08T05:39:00.909Z,6.98
2019-02-08T05:42:03.926Z,6.97
2019-02-08T05:45:10.426Z,6.87
2019-02-08T05:48:13.328Z,6.84
2019-02-08T05:51:16.257Z,6.93
2019-02-08T05:54:20.500Z,6.90
2019-02-08T05:57:23.435Z,6.80
2019-02-08T06:00:57.930Z,6.79
2019-02-08T06:04:00.854Z,6.72
2019-02-08T06:07:04.734Z,6.76
2019-02-08T06:10:09.889Z,6.78
2019-02-08T06:13:13.088Z,6.83
2019-02-08T06:16:16.028Z,6.82
2019-02-08T06:19:19.374Z,6.81
2019-02-08T06:22:22.297Z,6.91
2019-02-08T06:25:25.330Z,6.90
2019-02-08T06:28:28.253Z,6.75
2019-02-08T06:31:31.173Z,6.84
2019-02-08T06:34:34.087Z,6.82
2019-02-08T06:37:44.166Z,6.74
2019-02-08T06:40:44.253Z,6.82
2019-02-08T06:43:47.324Z,6.87
2019-02-08T06:46:50.675Z,6.77
2019-02-08T06:49:53.964Z,6.84
2019-02-08T06:52:57.097Z,7.00
2019-02-08T06:55:59.999Z,7.02
2019-02-08T06:59:21.056Z,7.00
2019-02-08T07:02:32.865Z,6.96
2019-02-08T07:05:51.878Z,6.96
2019-02-08T07:09:30.238Z,7.00
2019-02-08T07:12:46.610Z,6.91
2019-02-08T07:16:10.603Z,7.00
2019-02-08T07:19:22.496Z,6.94
2019-02-08T07:22:40.462Z,6.93
2019-02-08T07:26:06.080Z,7.01
2019-02-08T07:29:18.972Z,7.02
2019-02-08T07:32:44.745Z,7.07
2019-02-08T07:36:04.264Z,7.57
2019-02-08T07:39:36.897Z,7.28
2019-02-08T07:42:58.578Z,7.18
2019-02-08T07:46:23.791Z,7.13
2019-02-08T07:49:49.808Z,7.21
2019-02-08T07:53:18.779Z,7.13
2019-02-08T07:56:43.318Z,7.21
2019-02-08T08:00:05.063Z,7.18
2019-02-08T08:03:30.569Z,7.17
2019-02-08T08:06:46.440Z,7.12
2019-02-08T08:10:12.375Z,7.20
2019-02-08T08:13:30.285Z,7.16
2019-02-08T08:16:48.340Z,7.20
2019-02-08T08:20:16.848Z,7.26
2019-02-08T08:23:43.296Z,7.22
2019-02-08T08:27:15.866Z,7.30
2019-02-08T08:30:35.017Z,7.30
2019-02-08T08:34:05.011Z,7.34
2019-02-08T08:38:29.511Z,7.41
2019-02-08T08:42:11.037Z,7.44
2019-02-08T08:45:51.404Z,7.43
2019-02-08T08:49:47.386Z,10.25
2019-02-08T08:53:17.989Z,7.92
2019-02-08T08:57:46.996Z,7.57
2019-02-08T09:01:49.778Z,7.47
2019-02-08T09:06:10.787Z,7.47
2019-02-08T09:10:10.047Z,7.46
2019-02-08T09:14:10.039Z,7.62
2019-02-08T09:18:38.089Z,7.54
2019-02-08T09:22:43.563Z,7.64
2019-02-08T09:26:28.334Z,7.67
2019-02-08T09:30:16.065Z,7.61
2019-02-08T09:34:14.916Z,7.67
2019-02-08T09:38:03.771Z,7.75
2019-02-08T09:42:06.632Z,7.70
2019-02-08T09:46:24.616Z,7.92
2019-02-08T09:50:18.295Z,7.83
2019-02-08T09:54:22.210Z,7.72
2019-02-08T09:58:49.183Z,7.82
2019-02-08T10:02:59.377Z,7.88
2019-02-08T10:07:15.371Z,7.90
2019-02-08T10:11:45.454Z,8.03
2019-02-08T10:16:07.361Z,7.94
2019-02-08T10:19:50.078Z,8.08
2019-02-08T10:23:42.592Z,7.91
2019-02-08T10:27:42.002Z,7.96
2019-02-08T10:31:51.678Z,7.91
2019-02-08T10:35:50.286Z,8.04
2019-02-08T10:40:12.166Z,7.98
2019-02-08T10:44:20.978Z,7.97
2019-02-08T10:48:29.056Z,8.12
2019-02-08T10:52:51.180Z,8.12
2019-02-08T10:56:42.176Z,8.12
2019-02-08T11:00:50.128Z,8.11
2019-02-08T11:04:53.637Z,8.12
2019-02-08T11:09:04.586Z,8.10
2019-02-08T11:12:57.478Z,8.25
2019-02-08T11:17:05.059Z,8.17
2019-02-08T11:20:08.976Z,8.24
2019-02-08T11:23:12.286Z,8.36
2019-02-08T11:26:22.162Z,8.49
2019-02-08T11:29:20.394Z,12.49
2019-02-08T11:32:23.792Z,9.27
2019-02-08T11:35:27.125Z,8.91
2019-02-08T11:38:31.232Z,8.79
2019-02-08T11:41:34.622Z,8.84
2019-02-08T11:44:37.551Z,8.66
2019-02-08T11:47:40.900Z,8.69
2019-02-08T11:50:44.203Z,8.78
2019-02-08T11:53:47.475Z,8.79
2019-02-08T11:56:50.674Z,8.67
2019-02-08T11:59:53.985Z,8.75
2019-02-08T12:02:56.913Z,8.84
2019-02-08T12:06:01.028Z,8.79
2019-02-08T12:09:10.661Z,8.84
2019-02-08T12:12:13.779Z,8.89
2019-02-08T12:15:18.083Z,9.06
2019-02-08T12:18:20.989Z,9.08
2019-02-08T12:21:24.340Z,9.01
2019-02-08T12:24:27.290Z,9.07
2019-02-08T12:27:30.205Z,9.08
2019-02-08T12:30:36.386Z,9.05
2019-02-08T12:33:39.352Z,9.02
2019-02-08T12:36:42.296Z,9.13
2019-02-08T12:39:45.274Z,9.01
2019-02-08T12:42:48.220Z,9.20
2019-02-08T12:45:51.495Z,9.36
2019-02-08T12:48:55.116Z,9.18
2019-02-08T12:51:58.468Z,9.15
2019-02-08T12:55:02.310Z,9.12
2019-02-08T12:58:05.445Z,9.09
2019-02-08T13:01:08.889Z,9.22
2019-02-08T13:04:12.179Z,9.15
2019-02-08T13:07:15.139Z,9.18
2019-02-08T13:10:21.501Z,9.16
2019-02-08T13:13:24.557Z,9.16
2019-02-08T13:16:27.511Z,9.14
2019-02-08T13:19:30.755Z,9.29
2019-02-08T13:22:34.213Z,9.28
2019-02-08T13:25:37.152Z,9.23
2019-02-08T13:28:40.448Z,9.19
2019-02-08T13:31:43.760Z,9.24
2019-02-08T13:34:47.119Z,9.22
2019-02-08T13:37:50.688Z,9.29
2019-02-08T13:40:54.376Z,9.27
2019-02-08T13:43:57.318Z,9.11
2019-02-08T13:47:00.348Z,9.08
2019-02-08T13:50:07.602Z,9.27
2019-02-08T13:53:10.538Z,9.07
2019-02-08T13:56:13.837Z,9.10
2019-02-08T13:59:17.061Z,9.10
2019-02-08T14:02:19.973Z,9.19
2019-02-08T14:05:23.016Z,9.20
2019-02-08T14:08:25.989Z,9.05
2019-02-08T14:11:28.937Z,9.04
2019-02-08T14:14:32.181Z,9.09
2019-02-08T14:17:35.819Z,9.13
2019-02-08T14:20:38.748Z,9.01
2019-02-08T14:23:41.688Z,9.06
2019-02-08T14:26:44.970Z,9.05
2019-02-08T14:29:47.916Z,8.92
2019-02-08T14:32:51.559Z,8.90
2019-02-08T14:35:55.898Z,8.91
2019-02-08T14:38:59.196Z,8.94
2019-02-08T14:42:14.570Z,8.97
2019-02-08T14:45:18.353Z,8.85
2019-02-08T14:48:21.671Z,8.87
2019-02-08T14:51:25.152Z,8.85
2019-02-08T14:54:28.510Z,8.84
2019-02-08T14:57:31.443Z,8.89
2019-02-08T15:00:34.388Z,8.78
2019-02-08T15:03:37.412Z,8.76
2019-02-08T15:06:40.728Z,8.78
2019-02-08T15:09:43.652Z,8.74
2019-02-08T15:12:47.013Z,8.77
2019-02-08T15:15:50.348Z,8.77
2019-02-08T15:18:53.605Z,8.66
2019-02-08T15:21:56.552Z,8.69
2019-02-08T15:24:59.838Z,8.66
2019-02-08T15:28:03.086Z,8.69
2019-02-08T15:31:06.032Z,8.65
2019-02-08T15:34:09.079Z,8.72
2019-02-08T15:37:12.027Z,8.70
2019-02-08T15:40:23.832Z,8.68
2019-02-08T15:43:27.961Z,8.66
2019-02-08T15:46:33.101Z,8.59
2019-02-08T15:49:36.265Z,8.58
2019-02-08T15:52:40.629Z,8.60
2019-02-08T15:55:46.705Z,8.60
2019-02-08T15:58:50.317Z,8.55
2019-02-08T16:01:53.253Z,8.59
2019-02-08T16:04:56.459Z,8.58
2019-02-08T16:07:59.859Z,8.57
2019-02-08T16:11:03.196Z,8.58
2019-02-08T16:14:06.331Z,8.60
2019-02-08T16:17:09.242Z,8.57
2019-02-08T16:20:16.773Z,8.57
2019-02-08T16:23:19.716Z,8.56
2019-02-08T16:26:23.110Z,8.56
2019-02-08T16:29:26.280Z,8.57
2019-02-08T16:32:29.499Z,8.59
2019-02-08T16:35:32.453Z,8.60
2019-02-08T16:38:35.359Z,8.64
2019-02-08T16:41:39.020Z,8.66
2019-02-08T16:44:41.968Z,8.68
2019-02-08T16:47:46.023Z,8.64
2019-02-08T16:50:49.378Z,8.66
2019-02-08T16:53:53.766Z,8.66
2019-02-08T16:56:56.835Z,8.61
2019-02-08T16:59:59.761Z,8.59
2019-02-08T17:03:06.361Z,8.70
2019-02-08T17:06:09.287Z,8.62
2019-02-08T17:09:13.273Z,8.62
2019-02-08T17:12:16.583Z,8.58
2019-02-08T17:15:22.312Z,8.56
2019-02-08T17:18:25.226Z,8.54
2019-02-08T17:21:28.144Z,8.58
2019-02-08T17:24:31.345Z,8.52
2019-02-08T17:27:34.638Z,8.53
2019-02-08T17:30:38.632Z,8.54
2019-02-08T17:33:41.578Z,8.59
2019-02-08T17:36:44.586Z,8.54
2019-02-08T17:39:47.467Z,8.56
2019-02-08T17:42:51.021Z,8.57
2019-02-08T17:45:54.808Z,8.59
2019-02-08T17:48:58.032Z,8.57
2019-02-08T17:52:01.159Z,8.61
2019-02-08T17:55:06.552Z,8.62
2019-02-08T17:58:09.587Z,8.62
2019-02-08T18:01:12.491Z,8.68
2019-02-08T18:04:15.793Z,8.66
2019-02-08T18:07:18.731Z,8.64
2019-02-08T18:10:21.761Z,8.63
2019-02-08T18:13:25.121Z,8.66
2019-02-08T18:16:29.070Z,8.66
2019-02-08T18:19:32.069Z,8.68
2019-02-08T18:22:34.985Z,8.69
2019-02-08T18:25:37.940Z,8.68
2019-02-08T18:28:40.870Z,8.71
2019-02-08T18:31:44.271Z,8.72
2019-02-08T18:34:47.305Z,8.72
2019-02-08T18:37:50.206Z,8.71
2019-02-08T18:40:53.135Z,8.72
2019-02-08T18:43:56.849Z,8.76
2019-02-08T18:46:59.851Z,8.72
2019-02-08T18:50:04.363Z,8.73
2019-02-08T18:53:07.394Z,8.73
2019-02-08T18:56:11.427Z,8.70
2019-02-08T18:59:14.609Z,8.76
2019-02-08T19:02:17.547Z,8.76
2019-02-08T19:05:20.942Z,8.73
2019-02-08T19:08:24.163Z,8.78
2019-02-08T19:11:27.086Z,8.72
2019-02-08T19:14:30.716Z,8.75
2019-02-08T19:17:35.313Z,8.76
2019-02-08T19:20:38.539Z,8.71
2019-02-08T19:23:41.480Z,8.74
2019-02-08T19:26:44.415Z,8.71
2019-02-08T19:29:47.331Z,8.72
2019-02-08T19:32:50.412Z,8.72
2019-02-08T19:35:54.000Z,8.77
2019-02-08T19:38:58.331Z,8.74
2019-02-08T19:42:01.253Z,8.73
2019-02-08T19:45:07.680Z,8.74
2019-02-08T19:48:11.232Z,8.75
2019-02-08T19:51:14.171Z,8.76
2019-02-08T19:54:17.081Z,8.75
2019-02-08T19:57:20.411Z,9.62
2019-02-08T20:00:26.142Z,8.84
2019-02-08T20:03:29.711Z,8.84
2019-02-08T20:06:32.650Z,8.74
2019-02-08T20:09:35.566Z,8.75
2019-02-08T20:12:38.499Z,8.75
2019-02-08T20:15:41.761Z,8.78
2019-02-08T20:18:44.732Z,8.76
2019-02-08T20:21:47.663Z,8.76
2019-02-08T20:24:50.588Z,8.78
2019-02-08T20:27:54.516Z,8.82
2019-02-08T20:30:57.846Z,8.83
2019-02-08T20:34:00.807Z,8.83
2019-02-08T20:37:04.350Z,8.86
2019-02-08T20:40:11.628Z,8.85
2019-02-08T20:43:15.024Z,8.91
2019-02-08T20:46:17.946Z,8.85
2019-02-08T20:49:20.912Z,8.83
2019-02-08T20:52:23.823Z,8.88
2019-02-08T20:55:27.541Z,8.90
2019-02-08T20:58:31.484Z,8.83
2019-02-08T21:01:34.453Z,8.81
2019-02-08T21:04:37.397Z,8.81
2019-02-08T21:07:40.346Z,8.78
2019-02-08T21:10:43.275Z,8.82
2019-02-08T21:13:46.315Z,8.76
2019-02-08T21:16:49.231Z,8.75
2019-02-08T21:19:52.210Z,8.73
2019-02-08T21:22:55.454Z,8.71
2019-02-08T21:25:58.427Z,8.70
2019-02-08T21:29:01.364Z,8.65
2019-02-08T21:32:05.588Z,8.73
2019-02-08T21:35:09.417Z,8.67
2019-02-08T21:38:12.455Z,8.65
2019-02-08T21:41:15.393Z,8.63
2019-02-08T21:44:18.563Z,8.61
2019-02-08T21:47:22.267Z,8.63
2019-02-08T21:50:26.472Z,8.59
2019-02-08T21:53:29.390Z,8.63
2019-02-08T21:56:32.685Z,8.66
2019-02-08T21:59:35.604Z,8.63
2019-02-08T22:02:38.549Z,8.67
2019-02-08T22:05:49.021Z,8.65
2019-02-08T22:08:52.351Z,8.67
2019-02-08T22:11:55.716Z,8.66
2019-02-08T22:14:58.967Z,8.65
2019-02-08T22:18:01.998Z,8.66
2019-02-08T22:21:05.286Z,8.65
2019-02-08T22:24:08.205Z,8.61
2019-02-08T22:27:11.159Z,8.63
2019-02-08T22:30:20.155Z,8.64
2019-02-08T22:33:24.393Z,8.68
2019-02-08T22:36:27.333Z,8.64
2019-02-08T22:39:30.948Z,8.69
2019-02-08T22:42:33.905Z,8.67
2019-02-08T22:45:39.121Z,8.68
2019-02-08T22:48:42.217Z,8.73
2019-02-08T22:51:45.630Z,8.71
2019-02-08T22:54:48.585Z,8.71
2019-02-08T22:57:52.001Z,8.72
2019-02-08T23:01:33.948Z,8.75
2019-02-08T23:04:37.045Z,8.75
2019-02-08T23:07:40.153Z,8.76
2019-02-08T23:10:43.837Z,8.77
2019-02-08T23:13:48.726Z,8.79
2019-02-08T23:16:52.352Z,8.87
2019-02-08T23:19:55.685Z,8.79
2019-02-08T23:22:58.662Z,8.77
2019-02-08T23:26:01.687Z,8.73
2019-02-08T23:29:05.107Z,8.57
2019-02-08T23:32:08.035Z,8.45
2019-02-08T23:35:11.278Z,8.46
2019-02-08T23:38:28.025Z,8.29
2019-02-08T23:41:30.973Z,8.29
2019-02-08T23:44:34.324Z,8.32
2019-02-08T23:47:37.261Z,8.34
2019-02-08T23:50:40.191Z,8.33
2019-02-08T23:53:43.144Z,8.36
2019-02-08T23:56:46.055Z,8.31
2019-02-08T23:59:49.307Z,8.30
